createdAt,value
2023-02-04T00:00:56.189Z,0.55
2023-02-04T00:03:22.479Z,0.50
2023-02-04T00:05:48.868Z,0.57
2023-02-04T00:08:15.247Z,0.65
2023-02-04T00:10:41.536Z,0.73
2023-02-04T00:13:07.912Z,0.50
2023-02-04T00:15:34.349Z,0.50
2023-02-04T00:18:00.671Z,0.35
2023-02-04T00:20:26.918Z,0.60
2023-02-04T00:22:53.174Z,0.55
2023-02-04T00:25:19.439Z,0.88
2023-02-04T00:27:45.890Z,0.25
2023-02-04T00:30:12.675Z,1.00
2023-02-04T00:32:40.510Z,0.50
2023-02-04T00:35:07.043Z,0.47
2023-02-04T00:37:33.371Z,0.85
2023-02-04T00:39:59.686Z,0.60
2023-02-04T00:42:25.969Z,0.95
2023-02-04T00:44:52.276Z,0.30
2023-02-04T00:47:18.641Z,0.68
2023-02-04T00:49:44.938Z,0.40
2023-02-04T00:52:11.241Z,0.73
2023-02-04T00:54:37.568Z,0.60
2023-02-04T00:57:03.928Z,0.52
2023-02-04T00:59:30.248Z,0.50
2023-02-04T01:01:56.562Z,0.52
2023-02-04T01:04:23.416Z,0.63
2023-02-04T01:06:50.960Z,1.00
2023-02-04T01:09:17.257Z,0.63
2023-02-04T01:11:43.547Z,0.80
2023-02-04T01:14:09.841Z,0.82
2023-02-04T01:16:36.182Z,0.80
2023-02-04T01:19:02.502Z,0.75
2023-02-04T01:21:28.775Z,0.95
2023-02-04T01:23:55.071Z,0.50
2023-02-04T01:26:21.328Z,0.80
2023-02-04T01:28:47.649Z,0.88
2023-02-04T01:31:14.156Z,0.90
2023-02-04T01:33:40.520Z,0.52
2023-02-04T01:36:06.966Z,0.57
2023-02-04T01:38:33.472Z,0.88
2023-02-04T01:41:00.718Z,0.60
2023-02-04T01:43:27.213Z,0.45
2023-02-04T01:45:56.358Z,0.82
2023-02-04T01:48:23.047Z,0.60
2023-02-04T01:50:50.322Z,0.73
2023-02-04T01:53:18.682Z,0.95
2023-02-04T01:55:44.977Z,1.15
2023-02-04T01:58:12.258Z,1.30
2023-02-04T02:00:39.524Z,1.40
2023-02-04T02:03:09.097Z,0.80
2023-02-04T02:05:38.618Z,1.33
2023-02-04T02:08:05.814Z,1.27
2023-02-04T02:10:32.861Z,1.00
2023-02-04T02:12:59.507Z,1.10
2023-02-04T02:15:25.913Z,1.00
2023-02-04T02:17:53.491Z,0.73
2023-02-04T02:20:21.648Z,0.68
2023-02-04T02:22:53.878Z,1.10
2023-02-04T02:25:20.142Z,1.00
2023-02-04T02:27:46.854Z,0.98
2023-02-04T02:30:14.853Z,0.90
2023-02-04T02:32:41.136Z,0.50
2023-02-04T02:35:07.786Z,0.90
2023-02-04T02:37:34.098Z,0.63
2023-02-04T02:40:00.470Z,1.20
2023-02-04T02:42:26.858Z,0.70
2023-02-04T02:44:53.956Z,0.95
2023-02-04T02:47:21.351Z,0.98
2023-02-04T02:49:48.824Z,1.50
2023-02-04T02:52:15.124Z,1.05
2023-02-04T02:54:42.148Z,1.40
2023-02-04T02:57:19.736Z,1.17
2023-02-04T02:59:46.138Z,1.00
2023-02-04T03:02:15.051Z,1.17
2023-02-04T03:04:43.916Z,0.90
2023-02-04T03:07:12.206Z,0.90
2023-02-04T03:09:38.829Z,1.10
2023-02-04T03:12:06.590Z,0.98
2023-02-04T03:14:35.009Z,1.10
2023-02-04T03:17:02.575Z,1.48
2023-02-04T03:19:29.035Z,0.90
2023-02-04T03:21:56.122Z,1.20
2023-02-04T03:24:22.871Z,1.23
2023-02-04T03:26:49.219Z,1.42
2023-02-04T03:29:16.272Z,0.80
2023-02-04T03:31:43.012Z,1.27
2023-02-04T03:34:09.408Z,1.30
2023-02-04T03:36:37.055Z,1.20
2023-02-04T03:39:04.123Z,1.60
2023-02-04T03:41:30.454Z,1.20
2023-02-04T03:43:57.622Z,1.25
2023-02-04T03:46:26.117Z,1.20
2023-02-04T03:48:52.486Z,0.98
2023-02-04T03:51:18.816Z,1.00
2023-02-04T03:53:45.078Z,1.20
2023-02-04T03:56:11.325Z,0.80
2023-02-04T03:58:37.840Z,0.95
2023-02-04T04:01:04.178Z,0.80
2023-02-04T04:03:30.656Z,0.98
2023-02-04T04:05:57.987Z,0.85
2023-02-04T04:08:25.860Z,1.35
2023-02-04T04:10:53.000Z,1.20
2023-02-04T04:13:19.615Z,1.08
2023-02-04T04:15:45.965Z,0.88
2023-02-04T04:18:13.166Z,1.40
2023-02-04T04:20:39.761Z,1.63
2023-02-04T04:23:06.025Z,0.98
2023-02-04T04:25:32.317Z,1.10
2023-02-04T04:27:58.718Z,1.27
2023-02-04T04:30:25.115Z,1.60
2023-02-04T04:32:51.415Z,1.77
2023-02-04T04:35:17.702Z,1.40
2023-02-04T04:37:43.990Z,1.40
2023-02-04T04:40:13.084Z,1.63
2023-02-04T04:42:39.406Z,1.27
2023-02-04T04:45:11.041Z,1.13
2023-02-04T04:47:37.296Z,1.45
2023-02-04T04:50:04.073Z,1.42
2023-02-04T04:52:30.335Z,1.42
2023-02-04T04:54:56.653Z,1.38
2023-02-04T04:57:22.967Z,1.38
2023-02-04T04:59:49.242Z,1.50
2023-02-04T05:02:15.527Z,1.30
2023-02-04T05:04:41.824Z,1.00
2023-02-04T05:07:08.120Z,1.35
2023-02-04T05:09:34.378Z,1.10
2023-02-04T05:12:00.655Z,1.38
2023-02-04T05:14:26.941Z,1.40
2023-02-04T05:16:53.283Z,1.58
2023-02-04T05:19:19.547Z,1.27
2023-02-04T05:21:45.787Z,1.85
2023-02-04T05:24:12.116Z,1.20
2023-02-04T05:26:38.465Z,2.03
2023-02-04T05:29:04.788Z,1.60
2023-02-04T05:31:31.172Z,1.48
2023-02-04T05:33:57.478Z,1.40
2023-02-04T05:36:23.753Z,1.50
2023-02-04T05:38:50.014Z,1.40
2023-02-04T05:41:16.685Z,1.70
2023-02-04T05:43:43.230Z,1.50
2023-02-04T05:46:09.624Z,1.60
2023-02-04T05:48:35.910Z,1.58
2023-02-04T05:51:02.262Z,1.40
2023-02-04T05:53:28.565Z,1.30
2023-02-04T05:55:54.800Z,1.30
2023-02-04T05:58:21.082Z,1.85
2023-02-04T06:00:47.380Z,1.77
2023-02-04T06:03:14.491Z,1.60
2023-02-04T06:05:40.907Z,1.30
2023-02-04T06:08:07.170Z,1.90
2023-02-04T06:10:33.653Z,1.50
2023-02-04T06:13:00.104Z,1.80
2023-02-04T06:15:26.414Z,2.00
2023-02-04T06:17:53.211Z,1.50
2023-02-04T06:20:19.511Z,2.13
2023-02-04T06:22:47.502Z,1.95
2023-02-04T06:25:13.814Z,1.98
2023-02-04T06:27:40.168Z,1.70
2023-02-04T06:30:06.958Z,1.90
2023-02-04T06:32:33.224Z,1.75
2023-02-04T06:34:59.632Z,1.83
2023-02-04T06:37:25.924Z,1.60
2023-02-04T06:39:54.403Z,1.75
2023-02-04T06:42:20.891Z,1.63
2023-02-04T06:44:47.149Z,2.03
2023-02-04T06:47:13.512Z,2.45
2023-02-04T06:49:39.847Z,1.90
2023-02-04T06:52:06.104Z,2.22
2023-02-04T06:54:32.384Z,2.25
2023-02-04T06:57:06.398Z,2.33
2023-02-04T06:59:33.781Z,2.35
2023-02-04T07:02:00.078Z,2.45
2023-02-04T07:04:26.364Z,2.35
2023-02-04T07:06:52.674Z,2.28
2023-02-04T07:09:18.946Z,2.17
2023-02-04T07:11:45.199Z,2.05
2023-02-04T07:14:11.482Z,2.50
2023-02-04T07:16:37.756Z,1.95
2023-02-04T07:19:04.119Z,2.45
2023-02-04T07:21:30.443Z,1.83
2023-02-04T07:23:56.733Z,1.88
2023-02-04T07:26:23.005Z,1.88
2023-02-04T07:28:49.359Z,2.22
2023-02-04T07:31:15.762Z,2.00
2023-02-04T07:33:42.102Z,2.28
2023-02-04T07:36:08.445Z,2.15
2023-02-04T07:38:34.799Z,2.33
2023-02-04T07:41:01.080Z,3.17
2023-02-04T07:43:27.344Z,3.03
2023-02-04T07:45:53.633Z,3.10
2023-02-04T07:48:19.899Z,2.63
2023-02-04T07:50:46.218Z,2.17
2023-02-04T07:53:12.621Z,2.30
2023-02-04T07:55:38.890Z,2.08
2023-02-04T07:58:05.172Z,2.50
2023-02-04T08:00:32.442Z,2.22
2023-02-04T08:02:58.958Z,2.33
2023-02-04T08:05:25.303Z,2.13
2023-02-04T08:07:51.586Z,2.13
2023-02-04T08:10:17.911Z,2.88
2023-02-04T08:12:44.194Z,2.25
2023-02-04T08:15:10.468Z,2.85
2023-02-04T08:17:36.878Z,2.88
2023-02-04T08:20:03.545Z,2.38
2023-02-04T08:22:29.819Z,2.13
2023-02-04T08:24:56.071Z,2.55
2023-02-04T08:27:22.338Z,2.45
2023-02-04T08:29:49.082Z,2.10
2023-02-04T08:32:16.127Z,2.30
2023-02-04T08:34:43.686Z,2.05
2023-02-04T08:37:10.001Z,2.13
2023-02-04T08:39:36.530Z,2.20
2023-02-04T08:42:02.825Z,1.80
2023-02-04T08:44:29.131Z,2.45
2023-02-04T08:46:55.530Z,1.88
2023-02-04T08:49:21.790Z,1.95
2023-02-04T08:51:48.079Z,1.75
2023-02-04T08:54:14.309Z,2.53
2023-02-04T08:56:40.594Z,2.17
2023-02-04T08:59:06.865Z,2.25
2023-02-04T09:01:33.159Z,2.03
2023-02-04T09:03:59.423Z,1.55
2023-02-04T09:06:25.721Z,1.75
2023-02-04T09:08:51.955Z,1.90
2023-02-04T09:11:18.279Z,1.52
2023-02-04T09:13:44.549Z,1.83
2023-02-04T09:16:10.956Z,1.25
2023-02-04T09:18:37.302Z,1.50
2023-02-04T09:21:03.641Z,1.58
2023-02-04T09:23:30.209Z,1.55
2023-02-04T09:25:56.542Z,1.50
2023-02-04T09:28:22.810Z,1.27
2023-02-04T09:30:49.145Z,1.02
2023-02-04T09:33:16.840Z,1.25
2023-02-04T09:35:43.349Z,1.42
2023-02-04T09:38:09.638Z,1.08
2023-02-04T09:40:37.701Z,1.13
2023-02-04T09:43:05.552Z,0.98
2023-02-04T09:45:33.899Z,1.27
2023-02-04T09:48:02.176Z,0.80
2023-02-04T09:50:28.771Z,1.10
2023-02-04T09:52:57.052Z,1.15
2023-02-04T09:55:26.776Z,1.05
2023-02-04T09:57:53.084Z,0.63
2023-02-04T10:00:20.738Z,0.80
2023-02-04T10:02:47.061Z,0.90
2023-02-04T10:05:15.178Z,1.08
2023-02-04T10:07:41.600Z,1.20
2023-02-04T10:10:13.344Z,1.20
2023-02-04T10:12:39.645Z,0.52
2023-02-04T10:15:10.894Z,0.98
2023-02-04T10:17:37.194Z,0.85
2023-02-04T10:20:03.728Z,1.17
2023-02-04T10:22:30.513Z,1.75
2023-02-04T10:24:56.782Z,0.95
2023-02-04T10:27:23.131Z,0.95
2023-02-04T10:29:56.559Z,0.80
2023-02-04T10:32:27.130Z,1.05
2023-02-04T10:34:56.828Z,0.88
2023-02-04T10:37:23.287Z,1.17
2023-02-04T10:39:49.714Z,0.93
2023-02-04T10:42:20.969Z,1.40
2023-02-04T10:44:47.917Z,2.13
2023-02-04T10:47:21.832Z,2.42
2023-02-04T10:49:58.712Z,2.17
2023-02-04T10:52:30.345Z,2.00
2023-02-04T10:54:56.683Z,1.30
2023-02-04T10:57:30.124Z,2.92
2023-02-04T11:00:01.083Z,2.60
2023-02-04T11:02:32.412Z,1.77
2023-02-04T11:04:58.822Z,3.75
2023-02-04T11:07:25.083Z,1.70
2023-02-04T11:09:51.474Z,1.98
2023-02-04T11:12:22.257Z,1.20
2023-02-04T11:14:55.687Z,2.22
2023-02-04T11:17:30.496Z,0.80
2023-02-04T11:19:57.398Z,2.00
2023-02-04T11:22:25.066Z,1.52
2023-02-04T11:24:51.485Z,1.02
2023-02-04T11:27:22.115Z,0.90
2023-02-04T11:29:48.751Z,0.93
2023-02-04T11:32:35.038Z,1.08
2023-02-04T11:35:07.237Z,3.35
2023-02-04T11:37:33.509Z,1.65
2023-02-04T11:40:01.142Z,1.30
2023-02-04T11:42:33.070Z,1.02
2023-02-04T11:45:00.721Z,0.80
2023-02-04T11:47:27.898Z,1.55
2023-02-04T11:49:57.432Z,1.15
2023-02-04T11:52:23.733Z,1.00
2023-02-04T11:54:58.126Z,0.70
2023-02-04T11:57:24.868Z,0.80
2023-02-04T11:59:51.160Z,0.82
2023-02-04T12:02:19.831Z,1.00
2023-02-04T12:04:53.639Z,0.85
2023-02-04T12:07:28.181Z,0.80
2023-02-04T12:09:54.642Z,0.50
2023-02-04T12:12:29.507Z,0.80
2023-02-04T12:15:08.872Z,1.23
2023-02-04T12:17:35.168Z,1.33
2023-02-04T12:20:01.489Z,0.77
2023-02-04T12:22:27.760Z,0.63
2023-02-04T12:24:54.016Z,0.80
2023-02-04T12:27:20.381Z,0.68
2023-02-04T12:29:46.652Z,0.80
2023-02-04T12:32:13.113Z,0.70
2023-02-04T12:34:39.358Z,0.98
2023-02-04T12:37:05.611Z,0.70
2023-02-04T12:39:32.002Z,1.40
2023-02-04T12:41:58.678Z,1.08
2023-02-04T12:44:24.928Z,1.10
2023-02-04T12:46:51.650Z,1.00
2023-02-04T12:49:17.932Z,0.73
2023-02-04T12:51:44.179Z,0.73
2023-02-04T12:54:10.499Z,1.08
2023-02-04T12:56:36.828Z,1.17
2023-02-04T12:59:03.090Z,0.63
2023-02-04T13:01:29.426Z,1.15
2023-02-04T13:03:55.751Z,4.65
2023-02-04T13:06:22.045Z,1.90
2023-02-04T13:08:48.284Z,0.73
2023-02-04T13:11:14.622Z,1.13
2023-02-04T13:13:40.889Z,0.77
2023-02-04T13:16:07.427Z,0.88
2023-02-04T13:18:33.982Z,0.73
2023-02-04T13:21:00.400Z,0.47
2023-02-04T13:23:26.771Z,0.50
2023-02-04T13:25:53.045Z,0.50
2023-02-04T13:28:19.359Z,0.50
2023-02-04T13:30:45.944Z,0.68
2023-02-04T13:33:12.362Z,1.30
2023-02-04T13:35:38.675Z,0.70
2023-02-04T13:38:05.007Z,0.50
2023-02-04T13:40:31.304Z,0.95
2023-02-04T13:42:57.697Z,0.77
2023-02-04T13:45:24.057Z,0.85
2023-02-04T13:47:50.412Z,1.02
2023-02-04T13:50:16.753Z,0.77
2023-02-04T13:52:43.208Z,0.93
2023-02-04T13:55:09.538Z,0.70
2023-02-04T13:57:37.267Z,1.00
2023-02-04T14:00:04.469Z,0.80
2023-02-04T14:02:38.814Z,0.68
2023-02-04T14:05:05.274Z,0.70
2023-02-04T14:07:33.336Z,1.00
2023-02-04T14:09:59.574Z,0.65
2023-02-04T14:12:25.802Z,0.93
2023-02-04T14:14:52.122Z,1.00
2023-02-04T14:17:18.448Z,0.90
2023-02-04T14:19:44.695Z,1.20
2023-02-04T14:22:12.916Z,1.17
2023-02-04T14:24:41.393Z,1.40
2023-02-04T14:27:08.154Z,1.35
2023-02-04T14:29:34.734Z,1.48
2023-02-04T14:32:01.086Z,1.17
2023-02-04T14:34:27.515Z,1.02
2023-02-04T14:36:53.787Z,0.68
2023-02-04T14:39:20.070Z,0.60
2023-02-04T14:41:46.378Z,0.70
2023-02-04T14:44:13.544Z,0.50
2023-02-04T14:46:41.217Z,1.50
2023-02-04T14:49:07.492Z,0.75
2023-02-04T14:51:33.760Z,0.70
2023-02-04T14:54:00.071Z,0.80
2023-02-04T14:56:27.089Z,0.70
2023-02-04T14:58:53.680Z,0.80
2023-02-04T15:01:20.369Z,1.08
2023-02-04T15:03:46.708Z,0.80
2023-02-04T15:06:12.983Z,0.70
2023-02-04T15:08:39.227Z,0.90
2023-02-04T15:11:05.484Z,0.75
2023-02-04T15:13:31.786Z,0.65
2023-02-04T15:15:58.082Z,0.68
2023-02-04T15:18:24.486Z,0.68
2023-02-04T15:20:50.794Z,0.95
2023-02-04T15:23:17.995Z,1.30
2023-02-04T15:25:44.308Z,1.15
2023-02-04T15:28:12.149Z,0.85
2023-02-04T15:30:38.977Z,1.33
2023-02-04T15:33:05.316Z,0.75
2023-02-04T15:35:31.647Z,0.73
2023-02-04T15:37:57.936Z,1.10
2023-02-04T15:40:24.169Z,0.70
2023-02-04T15:42:51.687Z,0.88
2023-02-04T15:45:18.036Z,0.63
2023-02-04T15:47:44.353Z,1.15
2023-02-04T15:50:12.565Z,0.68
2023-02-04T15:52:38.830Z,0.70
2023-02-04T15:55:05.242Z,0.90
2023-02-04T15:57:31.538Z,0.98
2023-02-04T15:59:58.137Z,0.73
2023-02-04T16:02:24.480Z,1.52
2023-02-04T16:04:51.466Z,1.30
2023-02-04T16:07:17.840Z,1.10
2023-02-04T16:09:44.210Z,1.75
2023-02-04T16:12:10.536Z,1.80
2023-02-04T16:14:37.211Z,2.40
2023-02-04T16:17:03.566Z,1.38
2023-02-04T16:19:29.885Z,1.65
2023-02-04T16:21:56.254Z,2.70
2023-02-04T16:24:22.535Z,2.45
2023-02-04T16:26:48.798Z,2.35
2023-02-04T16:29:15.169Z,2.20
2023-02-04T16:31:44.707Z,3.03
2023-02-04T16:34:11.020Z,3.58
2023-02-04T16:36:37.306Z,4.07
2023-02-04T16:39:03.600Z,3.63
2023-02-04T16:41:29.952Z,2.60
2023-02-04T16:43:56.261Z,2.13
2023-02-04T16:46:22.636Z,2.13
2023-02-04T16:48:48.977Z,2.22
2023-02-04T16:51:15.267Z,1.77
2023-02-04T16:53:41.614Z,1.45
2023-02-04T16:56:07.918Z,2.03
2023-02-04T16:58:34.236Z,2.10
2023-02-04T17:01:00.515Z,1.67
2023-02-04T17:03:27.996Z,2.55
2023-02-04T17:05:54.301Z,2.05
2023-02-04T17:08:20.626Z,1.88
2023-02-04T17:11:05.780Z,2.38
2023-02-04T17:13:32.184Z,2.20
2023-02-04T17:16:01.036Z,1.75
2023-02-04T17:18:30.827Z,1.67
2023-02-04T17:20:57.508Z,1.88
2023-02-04T17:23:23.903Z,2.05
2023-02-04T17:25:50.879Z,2.08
2023-02-04T17:28:17.384Z,5.93
2023-02-04T17:30:43.667Z,2.40
2023-02-04T17:33:09.978Z,2.20
2023-02-04T17:35:36.439Z,2.30
2023-02-04T17:38:02.902Z,2.33
2023-02-04T17:40:30.386Z,2.40
2023-02-04T17:42:56.734Z,2.53
2023-02-04T17:45:22.999Z,2.35
2023-02-04T17:47:49.270Z,2.40
2023-02-04T17:50:15.711Z,2.10
2023-02-04T17:52:42.077Z,1.80
2023-02-04T17:55:16.856Z,2.42
2023-02-04T17:57:43.264Z,2.27
2023-02-04T18:00:14.245Z,2.65
2023-02-04T18:02:41.193Z,1.70
2023-02-04T18:05:16.213Z,1.88
2023-02-04T18:07:45.719Z,1.77
2023-02-04T18:10:31.850Z,1.55
2023-02-04T18:13:04.430Z,1.83
2023-02-04T18:15:32.388Z,2.15
2023-02-04T18:18:28.026Z,3.08
2023-02-04T18:20:59.290Z,2.15
2023-02-04T18:23:27.425Z,2.05
2023-02-04T18:25:54.552Z,1.40
2023-02-04T18:28:21.780Z,1.50
2023-02-04T18:30:50.759Z,1.95
2023-02-04T18:33:22.833Z,1.70
2023-02-04T18:35:52.650Z,1.40
2023-02-04T18:38:26.382Z,1.50
2023-02-04T18:40:57.200Z,1.98
2023-02-04T18:43:27.442Z,1.70
2023-02-04T18:45:54.312Z,1.65
2023-02-04T18:48:20.629Z,1.80
2023-02-04T18:50:49.938Z,1.83
2023-02-04T18:53:19.648Z,1.75
2023-02-04T18:55:50.031Z,2.00
2023-02-04T18:58:16.975Z,1.58
2023-02-04T19:00:47.703Z,1.65
2023-02-04T19:03:35.242Z,1.92
2023-02-04T19:06:02.481Z,1.77
2023-02-04T19:08:43.254Z,2.10
2023-02-04T19:11:23.011Z,1.48
2023-02-04T19:13:52.832Z,1.33
2023-02-04T19:16:45.399Z,1.65
2023-02-04T19:19:25.311Z,1.23
2023-02-04T19:21:51.617Z,1.90
2023-02-04T19:24:23.278Z,1.77
2023-02-04T19:26:52.664Z,1.98
2023-02-04T19:29:32.866Z,1.73
2023-02-04T19:32:00.022Z,1.83
2023-02-04T19:34:28.312Z,1.60
2023-02-04T19:36:55.048Z,1.33
2023-02-04T19:39:40.015Z,1.45
2023-02-04T19:42:27.884Z,1.90
2023-02-04T19:44:54.464Z,1.05
2023-02-04T19:47:25.104Z,1.55
2023-02-04T19:49:55.078Z,2.38
2023-02-04T19:52:29.832Z,2.10
2023-02-04T19:55:00.215Z,2.25
2023-02-04T19:57:27.835Z,1.60
2023-02-04T19:59:55.358Z,1.80
2023-02-04T20:02:33.586Z,1.58
2023-02-04T20:04:59.982Z,2.13
2023-02-04T20:07:27.302Z,1.58
2023-02-04T20:10:00.281Z,1.40
2023-02-04T20:12:28.396Z,1.55
2023-02-04T20:14:56.803Z,1.42
2023-02-04T20:17:23.282Z,1.50
2023-02-04T20:19:50.215Z,1.20
2023-02-04T20:22:23.399Z,1.30
2023-02-04T20:24:57.119Z,1.10
2023-02-04T20:27:25.188Z,1.88
2023-02-04T20:30:17.104Z,1.10
2023-02-04T20:32:45.399Z,1.40
2023-02-04T20:35:11.654Z,2.03
2023-02-04T20:37:38.504Z,2.20
2023-02-04T20:40:18.262Z,2.45
2023-02-04T20:42:50.094Z,1.90
2023-02-04T20:45:32.609Z,2.30
2023-02-04T20:48:01.110Z,2.05
2023-02-04T20:50:37.834Z,2.00
2023-02-04T20:53:19.298Z,1.95
2023-02-04T20:55:53.422Z,1.88
2023-02-04T20:58:19.731Z,1.50
2023-02-04T21:00:48.646Z,1.60
2023-02-04T21:03:28.794Z,2.03
2023-02-04T21:05:57.245Z,2.05
2023-02-04T21:08:49.661Z,2.33
2023-02-04T21:11:16.036Z,2.05
2023-02-04T21:13:42.572Z,2.08
2023-02-04T21:16:09.025Z,2.38
2023-02-04T21:18:35.951Z,2.13
2023-02-04T21:21:03.407Z,1.98
2023-02-04T21:23:29.903Z,1.95
2023-02-04T21:25:56.230Z,1.90
2023-02-04T21:28:22.621Z,2.17
2023-02-04T21:30:49.157Z,1.98
2023-02-04T21:33:17.107Z,1.42
2023-02-04T21:35:43.964Z,2.00
2023-02-04T21:38:10.471Z,1.90
2023-02-04T21:40:37.644Z,1.95
2023-02-04T21:43:06.313Z,1.50
2023-02-04T21:45:33.417Z,1.70
2023-02-04T21:47:59.987Z,1.75
2023-02-04T21:50:26.345Z,2.47
2023-02-04T21:52:52.700Z,1.95
2023-02-04T21:55:21.370Z,1.80
2023-02-04T21:57:49.533Z,2.28
2023-02-04T22:00:16.513Z,2.00
2023-02-04T22:02:42.973Z,2.20
2023-02-04T22:05:09.407Z,1.92
2023-02-04T22:07:36.378Z,2.00
2023-02-04T22:10:05.317Z,1.60
2023-02-04T22:12:31.601Z,2.28
2023-02-04T22:15:16.324Z,1.63
2023-02-04T22:17:43.048Z,1.60
2023-02-04T22:20:09.879Z,1.58
2023-02-04T22:22:37.215Z,1.83
2023-02-04T22:25:04.161Z,1.75
2023-02-04T22:27:30.458Z,1.35
2023-02-04T22:29:56.912Z,1.98
2023-02-04T22:32:24.064Z,1.95
2023-02-04T22:34:50.337Z,1.67
2023-02-04T22:37:16.636Z,1.63
2023-02-04T22:39:43.395Z,1.55
2023-02-04T22:42:09.664Z,2.10
2023-02-04T22:44:35.946Z,1.60
2023-02-04T22:47:02.352Z,1.88
2023-02-04T22:49:29.107Z,1.77
2023-02-04T22:51:55.387Z,4.78
2023-02-04T22:54:21.646Z,3.75
2023-02-04T22:56:47.943Z,2.10
2023-02-04T22:59:14.208Z,1.95
2023-02-04T23:01:40.503Z,1.88
2023-02-04T23:04:06.855Z,1.73
2023-02-04T23:06:33.448Z,2.17
2023-02-04T23:08:59.757Z,1.73
2023-02-04T23:11:26.080Z,2.33
2023-02-04T23:13:52.465Z,2.47
2023-02-04T23:16:19.444Z,2.22
2023-02-04T23:18:45.761Z,1.73
2023-02-04T23:21:12.259Z,2.25
2023-02-04T23:23:38.756Z,2.33
2023-02-04T23:26:05.189Z,2.17
2023-02-04T23:28:31.508Z,2.20
2023-02-04T23:30:57.922Z,1.88
2023-02-04T23:33:24.262Z,1.95
2023-02-04T23:35:50.692Z,1.98
2023-02-04T23:38:17.064Z,1.90
2023-02-04T23:40:43.328Z,2.08
2023-02-04T23:43:10.909Z,2.00
2023-02-04T23:45:37.433Z,2.28
2023-02-04T23:48:04.197Z,2.33
2023-02-04T23:50:30.506Z,2.03
2023-02-04T23:52:56.785Z,2.42
2023-02-04T23:55:23.099Z,2.47
2023-02-04T23:57:49.502Z,1.88
